Etusivu
METAR-TAF:

METAR-TAF

Lentoasemat :

Millinocket Municipal Airport

Millinocket, Maine, Yhdysvallat

Leveyspiiri: 45-38-52N, Pituuspiiri: 068-41-31W, korkeus merenpinnasta: 124 m

Tämänhetkinen sää

Tämä raportti tehtiin 36 minuuttia sitten, kello 14.05 UTC
Tuuli 18 kn lännestä/luoteesta puuskistuen 32 kn:hen
Lämpötila -8°C
Kosteus 62%
Ilmanpaine 1013 hPa
Näkyvyys: 16.1 km
Hajonneita pilviä 2300 ft:n korkeudessa

METAR: KMLT 131405Z AUTO 30018G32KT 10SM BKN023 M08/M14 A2990 RMK AO2 PK WND 30032/1358 T10831144

Aika: 09:41 (14:41 UTC)


TAF: puuttuu

Säähavainnot ja -ennusteet yli 4000 lentoasemalta (METAR- ja TAF-raportit).

Käytössä olevat sääasemat on merkitty karttaan keltaisilla ja punaisilla pisteillä.

Aseta hiiri pisteen päälle nähdäksesi sääaseman nimen.

Klikkaa sitten nähdäksesi säähavainnot ja -ennusteet.

Kartan vaihtaminen: klikkaa mustalla rastilla varustettuja vihreitä pisteitä, niin voit zoomata sisään; viivalla varustettua vihreää pistettä, niin voit zoomata ulos tai vihreitä nuolia, niin pääset viereisille kartoille.


METAR-TAF: